sensor_id;sensor_type;location;lat;lon;timestamp;P1;durP1;ratioP1;P2;durP2;ratioP2
50803;SDS011;37205;51.434;6.756;2024-03-08T00:00:33;25.75;;;18.15;;
50803;SDS011;37205;51.434;6.756;2024-03-08T00:02:59;22.77;;;17.77;;
50803;SDS011;37205;51.434;6.756;2024-03-08T00:05:31;25.83;;;18.25;;
50803;SDS011;37205;51.434;6.756;2024-03-08T00:07:56;25.98;;;18.73;;
50803;SDS011;37205;51.434;6.756;2024-03-08T00:10:22;24.35;;;18.33;;
50803;SDS011;37205;51.434;6.756;2024-03-08T00:12:48;25.75;;;18.60;;
50803;SDS011;37205;51.434;6.756;2024-03-08T00:15:14;23.90;;;18.42;;
50803;SDS011;37205;51.434;6.756;2024-03-08T00:17:41;23.85;;;18.05;;
50803;SDS011;37205;51.434;6.756;2024-03-08T00:20:07;26.77;;;18.52;;
50803;SDS011;37205;51.434;6.756;2024-03-08T00:22:36;24.02;;;18.08;;
50803;SDS011;37205;51.434;6.756;2024-03-08T00:25:03;25.67;;;18.65;;
50803;SDS011;37205;51.434;6.756;2024-03-08T00:27:29;25.88;;;18.90;;
50803;SDS011;37205;51.434;6.756;2024-03-08T00:29:58;25.23;;;18.98;;
50803;SDS011;37205;51.434;6.756;2024-03-08T00:32:24;25.98;;;18.95;;
50803;SDS011;37205;51.434;6.756;2024-03-08T00:34:50;24.02;;;18.70;;
50803;SDS011;37205;51.434;6.756;2024-03-08T00:37:19;26.63;;;19.25;;
50803;SDS011;37205;51.434;6.756;2024-03-08T00:39:45;25.35;;;18.75;;
50803;SDS011;37205;51.434;6.756;2024-03-08T00:42:10;27.17;;;19.77;;
50803;SDS011;37205;51.434;6.756;2024-03-08T00:44:36;24.02;;;18.98;;
50803;SDS011;37205;51.434;6.756;2024-03-08T00:47:02;26.90;;;19.05;;
50803;SDS011;37205;51.434;6.756;2024-03-08T00:49:29;26.00;;;19.00;;
50803;SDS011;37205;51.434;6.756;2024-03-08T00:51:55;26.08;;;19.35;;
50803;SDS011;37205;51.434;6.756;2024-03-08T00:54:21;25.13;;;18.95;;
50803;SDS011;37205;51.434;6.756;2024-03-08T00:56:46;27.70;;;20.15;;
50803;SDS011;37205;51.434;6.756;2024-03-08T00:59:12;26.08;;;19.15;;
50803;SDS011;37205;51.434;6.756;2024-03-08T01:01:39;26.40;;;19.58;;
50803;SDS011;37205;51.434;6.756;2024-03-08T01:04:05;27.00;;;19.85;;
50803;SDS011;37205;51.434;6.756;2024-03-08T01:06:30;24.90;;;19.15;;
50803;SDS011;37205;51.434;6.756;2024-03-08T01:08:56;26.80;;;19.70;;
50803;SDS011;37205;51.434;6.756;2024-03-08T01:11:22;28.42;;;21.17;;
50803;SDS011;37205;51.434;6.756;2024-03-08T01:13:47;27.50;;;20.63;;
50803;SDS011;37205;51.434;6.756;2024-03-08T01:16:14;25.15;;;19.65;;
50803;SDS011;37205;51.434;6.756;2024-03-08T01:18:41;26.83;;;20.27;;
50803;SDS011;37205;51.434;6.756;2024-03-08T01:21:07;27.63;;;19.63;;
50803;SDS011;37205;51.434;6.756;2024-03-08T01:23:33;31.27;;;20.83;;
50803;SDS011;37205;51.434;6.756;2024-03-08T01:25:59;28.02;;;20.80;;
50803;SDS011;37205;51.434;6.756;2024-03-08T01:28:27;27.70;;;20.27;;
50803;SDS011;37205;51.434;6.756;2024-03-08T01:30:52;26.17;;;19.75;;
50803;SDS011;37205;51.434;6.756;2024-03-08T01:33:26;29.92;;;20.40;;
50803;SDS011;37205;51.434;6.756;2024-03-08T01:35:52;28.17;;;19.45;;
50803;SDS011;37205;51.434;6.756;2024-03-08T01:38:18;28.92;;;21.45;;
50803;SDS011;37205;51.434;6.756;2024-03-08T01:40:46;27.35;;;21.02;;
50803;SDS011;37205;51.434;6.756;2024-03-08T01:43:16;26.50;;;20.05;;
50803;SDS011;37205;51.434;6.756;2024-03-08T01:45:43;29.35;;;21.17;;
50803;SDS011;37205;51.434;6.756;2024-03-08T01:48:08;32.17;;;22.13;;
50803;SDS011;37205;51.434;6.756;2024-03-08T01:50:35;29.20;;;20.17;;
50803;SDS011;37205;51.434;6.756;2024-03-08T01:53:01;30.48;;;22.02;;
50803;SDS011;37205;51.434;6.756;2024-03-08T01:55:28;27.30;;;21.77;;
50803;SDS011;37205;51.434;6.756;2024-03-08T01:57:53;29.50;;;20.70;;
50803;SDS011;37205;51.434;6.756;2024-03-08T02:00:20;29.30;;;21.70;;
50803;SDS011;37205;51.434;6.756;2024-03-08T02:02:46;32.67;;;22.77;;
50803;SDS011;37205;51.434;6.756;2024-03-08T02:05:12;31.35;;;22.20;;
50803;SDS011;37205;51.434;6.756;2024-03-08T02:07:40;29.05;;;21.40;;
50803;SDS011;37205;51.434;6.756;2024-03-08T02:10:09;31.67;;;22.70;;
50803;SDS011;37205;51.434;6.756;2024-03-08T02:12:35;30.58;;;21.77;;
50803;SDS011;37205;51.434;6.756;2024-03-08T02:15:01;30.08;;;22.38;;
50803;SDS011;37205;51.434;6.756;2024-03-08T02:17:27;30.15;;;22.38;;
50803;SDS011;37205;51.434;6.756;2024-03-08T02:19:52;29.33;;;22.08;;
50803;SDS011;37205;51.434;6.756;2024-03-08T02:22:18;32.13;;;22.55;;
50803;SDS011;37205;51.434;6.756;2024-03-08T02:24:44;30.50;;;22.63;;
50803;SDS011;37205;51.434;6.756;2024-03-08T02:27:10;31.33;;;22.10;;
50803;SDS011;37205;51.434;6.756;2024-03-08T02:29:36;29.75;;;22.15;;
50803;SDS011;37205;51.434;6.756;2024-03-08T02:32:05;30.42;;;22.50;;
50803;SDS011;37205;51.434;6.756;2024-03-08T02:34:31;31.02;;;21.92;;
50803;SDS011;37205;51.434;6.756;2024-03-08T02:36:57;32.78;;;22.55;;
50803;SDS011;37205;51.434;6.756;2024-03-08T02:39:22;30.98;;;22.02;;
50803;SDS011;37205;51.434;6.756;2024-03-08T02:41:48;35.92;;;23.83;;
50803;SDS011;37205;51.434;6.756;2024-03-08T02:44:13;32.58;;;23.60;;
50803;SDS011;37205;51.434;6.756;2024-03-08T02:46:39;30.85;;;22.48;;
50803;SDS011;37205;51.434;6.756;2024-03-08T02:49:05;32.63;;;22.95;;
50803;SDS011;37205;51.434;6.756;2024-03-08T02:51:32;32.20;;;22.38;;
50803;SDS011;37205;51.434;6.756;2024-03-08T02:54:00;32.67;;;22.67;;
50803;SDS011;37205;51.434;6.756;2024-03-08T02:56:25;33.28;;;23.75;;
50803;SDS011;37205;51.434;6.756;2024-03-08T02:58:51;34.38;;;23.60;;
50803;SDS011;37205;51.434;6.756;2024-03-08T03:01:17;35.65;;;22.85;;
50803;SDS011;37205;51.434;6.756;2024-03-08T03:03:45;37.15;;;24.45;;
50803;SDS011;37205;51.434;6.756;2024-03-08T03:06:12;35.05;;;23.55;;
50803;SDS011;37205;51.434;6.756;2024-03-08T03:08:37;32.28;;;23.65;;
50803;SDS011;37205;51.434;6.756;2024-03-08T03:11:03;32.20;;;23.77;;
50803;SDS011;37205;51.434;6.756;2024-03-08T03:13:29;31.45;;;23.17;;
50803;SDS011;37205;51.434;6.756;2024-03-08T03:15:54;33.03;;;22.90;;
50803;SDS011;37205;51.434;6.756;2024-03-08T03:18:22;33.75;;;24.48;;
50803;SDS011;37205;51.434;6.756;2024-03-08T03:20:48;34.17;;;24.23;;
50803;SDS011;37205;51.434;6.756;2024-03-08T03:23:14;32.45;;;24.33;;
50803;SDS011;37205;51.434;6.756;2024-03-08T03:25:45;34.63;;;24.58;;
50803;SDS011;37205;51.434;6.756;2024-03-08T03:28:11;34.80;;;23.88;;
50803;SDS011;37205;51.434;6.756;2024-03-08T03:30:42;34.42;;;24.42;;
50803;SDS011;37205;51.434;6.756;2024-03-08T03:33:09;36.13;;;24.55;;
50803;SDS011;37205;51.434;6.756;2024-03-08T03:35:35;32.78;;;23.70;;
50803;SDS011;37205;51.434;6.756;2024-03-08T03:38:01;35.47;;;24.52;;
50803;SDS011;37205;51.434;6.756;2024-03-08T03:40:36;33.80;;;24.17;;
50803;SDS011;37205;51.434;6.756;2024-03-08T03:43:02;38.58;;;24.70;;
50803;SDS011;37205;51.434;6.756;2024-03-08T03:45:28;35.90;;;25.00;;
50803;SDS011;37205;51.434;6.756;2024-03-08T03:47:54;35.28;;;25.00;;
50803;SDS011;37205;51.434;6.756;2024-03-08T03:50:20;35.05;;;24.83;;
50803;SDS011;37205;51.434;6.756;2024-03-08T03:52:47;33.92;;;24.15;;
50803;SDS011;37205;51.434;6.756;2024-03-08T03:55:13;37.95;;;24.90;;
50803;SDS011;37205;51.434;6.756;2024-03-08T03:57:39;38.60;;;26.30;;
50803;SDS011;37205;51.434;6.756;2024-03-08T04:00:05;35.97;;;24.45;;
50803;SDS011;37205;51.434;6.756;2024-03-08T04:02:34;38.97;;;25.02;;
50803;SDS011;37205;51.434;6.756;2024-03-08T04:05:02;36.90;;;25.10;;
50803;SDS011;37205;51.434;6.756;2024-03-08T04:07:28;36.15;;;25.08;;
50803;SDS011;37205;51.434;6.756;2024-03-08T04:09:53;36.40;;;24.15;;
50803;SDS011;37205;51.434;6.756;2024-03-08T04:12:19;35.33;;;24.70;;
50803;SDS011;37205;51.434;6.756;2024-03-08T04:14:44;35.33;;;24.23;;
50803;SDS011;37205;51.434;6.756;2024-03-08T04:17:10;36.70;;;25.08;;
50803;SDS011;37205;51.434;6.756;2024-03-08T04:19:38;36.42;;;25.08;;
50803;SDS011;37205;51.434;6.756;2024-03-08T04:22:05;35.83;;;25.02;;
50803;SDS011;37205;51.434;6.756;2024-03-08T04:24:30;39.08;;;26.88;;
50803;SDS011;37205;51.434;6.756;2024-03-08T04:26:56;37.75;;;26.80;;
50803;SDS011;37205;51.434;6.756;2024-03-08T04:29:22;38.00;;;25.45;;
50803;SDS011;37205;51.434;6.756;2024-03-08T04:31:48;38.13;;;25.60;;
50803;SDS011;37205;51.434;6.756;2024-03-08T04:34:13;35.92;;;25.90;;
50803;SDS011;37205;51.434;6.756;2024-03-08T04:36:39;36.30;;;25.55;;
50803;SDS011;37205;51.434;6.756;2024-03-08T04:39:05;36.17;;;25.95;;
50803;SDS011;37205;51.434;6.756;2024-03-08T04:41:30;41.33;;;27.55;;
50803;SDS011;37205;51.434;6.756;2024-03-08T04:43:56;39.47;;;25.88;;
50803;SDS011;37205;51.434;6.756;2024-03-08T04:46:23;36.28;;;25.55;;
50803;SDS011;37205;51.434;6.756;2024-03-08T04:48:48;37.45;;;25.35;;
50803;SDS011;37205;51.434;6.756;2024-03-08T04:51:14;38.95;;;26.13;;
50803;SDS011;37205;51.434;6.756;2024-03-08T04:53:40;38.40;;;26.52;;
50803;SDS011;37205;51.434;6.756;2024-03-08T04:56:06;38.08;;;26.75;;
50803;SDS011;37205;51.434;6.756;2024-03-08T04:58:32;39.25;;;26.52;;
50803;SDS011;37205;51.434;6.756;2024-03-08T05:01:00;38.92;;;25.88;;
50803;SDS011;37205;51.434;6.756;2024-03-08T05:03:26;38.15;;;26.60;;
50803;SDS011;37205;51.434;6.756;2024-03-08T05:05:52;37.22;;;25.60;;
50803;SDS011;37205;51.434;6.756;2024-03-08T05:08:18;39.05;;;25.80;;
50803;SDS011;37205;51.434;6.756;2024-03-08T05:10:44;37.65;;;25.27;;
50803;SDS011;37205;51.434;6.756;2024-03-08T05:13:10;42.13;;;27.50;;
50803;SDS011;37205;51.434;6.756;2024-03-08T05:15:35;36.13;;;26.98;;
50803;SDS011;37205;51.434;6.756;2024-03-08T05:18:01;38.88;;;26.08;;
50803;SDS011;37205;51.434;6.756;2024-03-08T05:20:27;38.08;;;26.70;;
50803;SDS011;37205;51.434;6.756;2024-03-08T05:22:52;41.45;;;27.45;;
50803;SDS011;37205;51.434;6.756;2024-03-08T05:25:18;38.80;;;26.70;;
50803;SDS011;37205;51.434;6.756;2024-03-08T05:27:43;39.70;;;26.08;;
50803;SDS011;37205;51.434;6.756;2024-03-08T05:30:09;39.78;;;26.63;;
50803;SDS011;37205;51.434;6.756;2024-03-08T05:32:40;39.20;;;27.38;;
50803;SDS011;37205;51.434;6.756;2024-03-08T05:35:09;41.83;;;27.30;;
50803;SDS011;37205;51.434;6.756;2024-03-08T05:37:36;40.97;;;27.02;;
50803;SDS011;37205;51.434;6.756;2024-03-08T05:40:02;39.80;;;26.05;;
50803;SDS011;37205;51.434;6.756;2024-03-08T05:42:28;42.80;;;27.80;;
50803;SDS011;37205;51.434;6.756;2024-03-08T05:44:54;42.28;;;28.30;;
50803;SDS011;37205;51.434;6.756;2024-03-08T05:47:23;39.22;;;26.67;;
50803;SDS011;37205;51.434;6.756;2024-03-08T05:49:49;44.40;;;27.67;;
50803;SDS011;37205;51.434;6.756;2024-03-08T05:52:14;43.30;;;28.77;;
50803;SDS011;37205;51.434;6.756;2024-03-08T05:54:40;41.80;;;26.80;;
50803;SDS011;37205;51.434;6.756;2024-03-08T05:57:06;37.55;;;26.73;;
50803;SDS011;37205;51.434;6.756;2024-03-08T05:59:31;40.83;;;27.80;;
50803;SDS011;37205;51.434;6.756;2024-03-08T06:01:57;38.10;;;27.33;;
50803;SDS011;37205;51.434;6.756;2024-03-08T06:04:22;42.05;;;29.10;;
50803;SDS011;37205;51.434;6.756;2024-03-08T06:06:48;38.58;;;26.77;;
50803;SDS011;37205;51.434;6.756;2024-03-08T06:09:16;43.20;;;27.88;;
50803;SDS011;37205;51.434;6.756;2024-03-08T06:11:47;45.08;;;27.90;;
50803;SDS011;37205;51.434;6.756;2024-03-08T06:14:13;42.33;;;28.33;;
50803;SDS011;37205;51.434;6.756;2024-03-08T06:16:43;42.63;;;28.25;;
50803;SDS011;37205;51.434;6.756;2024-03-08T06:19:12;43.10;;;27.35;;
50803;SDS011;37205;51.434;6.756;2024-03-08T06:21:38;42.53;;;28.10;;
50803;SDS011;37205;51.434;6.756;2024-03-08T06:24:04;40.58;;;27.67;;
50803;SDS011;37205;51.434;6.756;2024-03-08T06:26:30;41.30;;;27.73;;
50803;SDS011;37205;51.434;6.756;2024-03-08T06:28:55;44.45;;;29.02;;
50803;SDS011;37205;51.434;6.756;2024-03-08T06:31:21;43.58;;;28.08;;
50803;SDS011;37205;51.434;6.756;2024-03-08T06:33:47;41.30;;;27.30;;
50803;SDS011;37205;51.434;6.756;2024-03-08T06:36:15;41.90;;;28.13;;
50803;SDS011;37205;51.434;6.756;2024-03-08T06:38:43;45.42;;;28.77;;
50803;SDS011;37205;51.434;6.756;2024-03-08T06:41:11;46.05;;;29.17;;
50803;SDS011;37205;51.434;6.756;2024-03-08T06:43:43;43.08;;;28.90;;
50803;SDS011;37205;51.434;6.756;2024-03-08T06:46:09;43.63;;;28.17;;
50803;SDS011;37205;51.434;6.756;2024-03-08T06:48:37;43.70;;;28.50;;
50803;SDS011;37205;51.434;6.756;2024-03-08T06:51:03;48.03;;;28.65;;
50803;SDS011;37205;51.434;6.756;2024-03-08T06:53:30;40.28;;;27.63;;
50803;SDS011;37205;51.434;6.756;2024-03-08T06:55:56;42.45;;;28.08;;
50803;SDS011;37205;51.434;6.756;2024-03-08T06:58:22;42.38;;;27.92;;
50803;SDS011;37205;51.434;6.756;2024-03-08T07:00:48;38.67;;;27.60;;
50803;SDS011;37205;51.434;6.756;2024-03-08T07:03:17;43.15;;;28.63;;
50803;SDS011;37205;51.434;6.756;2024-03-08T07:05:42;40.08;;;27.10;;
50803;SDS011;37205;51.434;6.756;2024-03-08T07:08:08;41.75;;;28.42;;
50803;SDS011;37205;51.434;6.756;2024-03-08T07:10:34;46.55;;;29.33;;
50803;SDS011;37205;51.434;6.756;2024-03-08T07:13:02;45.08;;;27.90;;
50803;SDS011;37205;51.434;6.756;2024-03-08T07:15:28;45.47;;;28.90;;
50803;SDS011;37205;51.434;6.756;2024-03-08T07:17:54;40.42;;;27.98;;
50803;SDS011;37205;51.434;6.756;2024-03-08T07:20:19;41.25;;;28.23;;
50803;SDS011;37205;51.434;6.756;2024-03-08T07:22:46;41.60;;;27.17;;
50803;SDS011;37205;51.434;6.756;2024-03-08T07:25:18;41.40;;;27.20;;
50803;SDS011;37205;51.434;6.756;2024-03-08T07:27:50;40.30;;;26.77;;
50803;SDS011;37205;51.434;6.756;2024-03-08T07:30:17;40.70;;;26.65;;
50803;SDS011;37205;51.434;6.756;2024-03-08T07:33:02;43.53;;;26.95;;
50803;SDS011;37205;51.434;6.756;2024-03-08T07:35:28;40.45;;;26.27;;
50803;SDS011;37205;51.434;6.756;2024-03-08T07:37:54;41.70;;;27.35;;
50803;SDS011;37205;51.434;6.756;2024-03-08T07:40:20;40.80;;;27.67;;
50803;SDS011;37205;51.434;6.756;2024-03-08T07:42:46;40.08;;;27.52;;
50803;SDS011;37205;51.434;6.756;2024-03-08T07:45:12;39.13;;;26.27;;
50803;SDS011;37205;51.434;6.756;2024-03-08T07:47:38;41.95;;;27.05;;
50803;SDS011;37205;51.434;6.756;2024-03-08T07:50:05;39.45;;;26.85;;
50803;SDS011;37205;51.434;6.756;2024-03-08T07:52:33;43.30;;;28.20;;
50803;SDS011;37205;51.434;6.756;2024-03-08T07:54:59;39.20;;;26.90;;
50803;SDS011;37205;51.434;6.756;2024-03-08T07:57:25;37.53;;;25.83;;
50803;SDS011;37205;51.434;6.756;2024-03-08T07:59:51;41.45;;;26.98;;
50803;SDS011;37205;51.434;6.756;2024-03-08T08:02:17;38.80;;;26.25;;
50803;SDS011;37205;51.434;6.756;2024-03-08T08:04:42;41.60;;;27.67;;
50803;SDS011;37205;51.434;6.756;2024-03-08T08:07:09;43.35;;;28.13;;
50803;SDS011;37205;51.434;6.756;2024-03-08T08:09:36;40.35;;;28.55;;
50803;SDS011;37205;51.434;6.756;2024-03-08T08:12:02;36.72;;;26.08;;
50803;SDS011;37205;51.434;6.756;2024-03-08T08:14:29;38.60;;;26.30;;
50803;SDS011;37205;51.434;6.756;2024-03-08T08:16:55;39.05;;;26.40;;
50803;SDS011;37205;51.434;6.756;2024-03-08T08:19:22;40.65;;;27.13;;
50803;SDS011;37205;51.434;6.756;2024-03-08T08:21:48;38.42;;;24.92;;
50803;SDS011;37205;51.434;6.756;2024-03-08T08:24:14;41.38;;;24.98;;
50803;SDS011;37205;51.434;6.756;2024-03-08T08:26:39;39.67;;;24.85;;
50803;SDS011;37205;51.434;6.756;2024-03-08T08:29:05;35.80;;;25.05;;
50803;SDS011;37205;51.434;6.756;2024-03-08T08:31:32;37.35;;;24.52;;
50803;SDS011;37205;51.434;6.756;2024-03-08T08:33:58;34.33;;;23.63;;
50803;SDS011;37205;51.434;6.756;2024-03-08T08:36:24;38.45;;;24.40;;
50803;SDS011;37205;51.434;6.756;2024-03-08T08:38:50;35.60;;;25.38;;
50803;SDS011;37205;51.434;6.756;2024-03-08T08:41:18;36.33;;;24.35;;
50803;SDS011;37205;51.434;6.756;2024-03-08T08:43:46;39.45;;;26.58;;
50803;SDS011;37205;51.434;6.756;2024-03-08T08:46:11;35.20;;;25.50;;
50803;SDS011;37205;51.434;6.756;2024-03-08T08:48:40;39.72;;;25.83;;
50803;SDS011;37205;51.434;6.756;2024-03-08T08:51:10;35.40;;;24.67;;
50803;SDS011;37205;51.434;6.756;2024-03-08T08:53:41;34.92;;;23.67;;
50803;SDS011;37205;51.434;6.756;2024-03-08T08:56:12;36.60;;;23.17;;
50803;SDS011;37205;51.434;6.756;2024-03-08T08:58:41;31.00;;;21.52;;
50803;SDS011;37205;51.434;6.756;2024-03-08T09:01:07;28.92;;;20.02;;
50803;SDS011;37205;51.434;6.756;2024-03-08T09:03:35;28.88;;;19.38;;
50803;SDS011;37205;51.434;6.756;2024-03-08T09:06:05;28.65;;;20.67;;
50803;SDS011;37205;51.434;6.756;2024-03-08T09:08:34;26.35;;;19.25;;
50803;SDS011;37205;51.434;6.756;2024-03-08T09:11:00;29.90;;;19.88;;
50803;SDS011;37205;51.434;6.756;2024-03-08T09:13:26;30.75;;;20.23;;
50803;SDS011;37205;51.434;6.756;2024-03-08T09:15:52;30.63;;;19.23;;
50803;SDS011;37205;51.434;6.756;2024-03-08T09:18:17;31.50;;;20.08;;
50803;SDS011;37205;51.434;6.756;2024-03-08T09:20:44;27.48;;;20.02;;
50803;SDS011;37205;51.434;6.756;2024-03-08T09:23:09;29.30;;;20.75;;
50803;SDS011;37205;51.434;6.756;2024-03-08T09:25:35;28.05;;;21.17;;
50803;SDS011;37205;51.434;6.756;2024-03-08T09:28:01;30.52;;;20.92;;
50803;SDS011;37205;51.434;6.756;2024-03-08T09:30:26;29.15;;;21.30;;
50803;SDS011;37205;51.434;6.756;2024-03-08T09:32:52;31.13;;;22.42;;
50803;SDS011;37205;51.434;6.756;2024-03-08T09:35:17;29.60;;;22.15;;
50803;SDS011;37205;51.434;6.756;2024-03-08T09:37:43;30.08;;;21.55;;
50803;SDS011;37205;51.434;6.756;2024-03-08T09:40:09;28.90;;;21.38;;
50803;SDS011;37205;51.434;6.756;2024-03-08T09:42:35;28.85;;;20.98;;
50803;SDS011;37205;51.434;6.756;2024-03-08T09:45:04;31.70;;;21.13;;
50803;SDS011;37205;51.434;6.756;2024-03-08T09:47:35;31.80;;;21.07;;
50803;SDS011;37205;51.434;6.756;2024-03-08T09:50:04;31.17;;;21.67;;
50803;SDS011;37205;51.434;6.756;2024-03-08T09:52:34;29.30;;;22.15;;
50803;SDS011;37205;51.434;6.756;2024-03-08T09:55:07;29.42;;;21.40;;
50803;SDS011;37205;51.434;6.756;2024-03-08T09:57:33;28.15;;;20.48;;
50803;SDS011;37205;51.434;6.756;2024-03-08T10:00:01;31.92;;;21.75;;
50803;SDS011;37205;51.434;6.756;2024-03-08T10:02:33;28.52;;;20.65;;
50803;SDS011;37205;51.434;6.756;2024-03-08T10:04:59;27.58;;;21.48;;
50803;SDS011;37205;51.434;6.756;2024-03-08T10:07:28;29.77;;;22.25;;
50803;SDS011;37205;51.434;6.756;2024-03-08T10:09:53;30.67;;;23.10;;
50803;SDS011;37205;51.434;6.756;2024-03-08T10:12:20;28.33;;;20.70;;
50803;SDS011;37205;51.434;6.756;2024-03-08T10:14:45;30.15;;;21.55;;
50803;SDS011;37205;51.434;6.756;2024-03-08T10:17:11;29.73;;;19.90;;
50803;SDS011;37205;51.434;6.756;2024-03-08T10:19:37;27.00;;;20.35;;
50803;SDS011;37205;51.434;6.756;2024-03-08T10:22:04;27.42;;;19.58;;
50803;SDS011;37205;51.434;6.756;2024-03-08T10:24:30;25.33;;;19.25;;
50803;SDS011;37205;51.434;6.756;2024-03-08T10:26:58;27.88;;;19.73;;
50803;SDS011;37205;51.434;6.756;2024-03-08T10:29:26;27.27;;;18.15;;
50803;SDS011;37205;51.434;6.756;2024-03-08T10:31:53;24.73;;;18.77;;
50803;SDS011;37205;51.434;6.756;2024-03-08T10:34:20;23.02;;;17.90;;
50803;SDS011;37205;51.434;6.756;2024-03-08T10:36:48;24.55;;;17.88;;
50803;SDS011;37205;51.434;6.756;2024-03-08T10:39:22;24.63;;;18.48;;
50803;SDS011;37205;51.434;6.756;2024-03-08T10:41:52;25.55;;;17.98;;
50803;SDS011;37205;51.434;6.756;2024-03-08T10:44:28;24.92;;;18.27;;
50803;SDS011;37205;51.434;6.756;2024-03-08T10:49:50;22.98;;;17.55;;
50803;SDS011;37205;51.434;6.756;2024-03-08T10:52:34;21.75;;;16.80;;
50803;SDS011;37205;51.434;6.756;2024-03-08T10:55:02;23.20;;;16.95;;
50803;SDS011;37205;51.434;6.756;2024-03-08T10:57:28;24.15;;;17.40;;
50803;SDS011;37205;51.434;6.756;2024-03-08T10:59:54;23.20;;;17.25;;
50803;SDS011;37205;51.434;6.756;2024-03-08T11:02:20;21.98;;;16.88;;
50803;SDS011;37205;51.434;6.756;2024-03-08T11:04:49;23.42;;;17.55;;
50803;SDS011;37205;51.434;6.756;2024-03-08T11:07:15;23.02;;;16.55;;
50803;SDS011;37205;51.434;6.756;2024-03-08T11:09:43;24.45;;;17.70;;
50803;SDS011;37205;51.434;6.756;2024-03-08T11:12:20;22.52;;;16.33;;
50803;SDS011;37205;51.434;6.756;2024-03-08T11:14:50;20.13;;;15.50;;
50803;SDS011;37205;51.434;6.756;2024-03-08T11:17:20;21.55;;;15.40;;
50803;SDS011;37205;51.434;6.756;2024-03-08T11:19:50;21.42;;;16.92;;
50803;SDS011;37205;51.434;6.756;2024-03-08T11:22:23;22.48;;;17.73;;
50803;SDS011;37205;51.434;6.756;2024-03-08T11:25:03;21.67;;;16.83;;
50803;SDS011;37205;51.434;6.756;2024-03-08T11:27:34;23.98;;;17.30;;
50803;SDS011;37205;51.434;6.756;2024-03-08T11:30:05;21.83;;;16.50;;
50803;SDS011;37205;51.434;6.756;2024-03-08T11:32:37;22.38;;;16.80;;
50803;SDS011;37205;51.434;6.756;2024-03-08T11:35:07;19.23;;;15.15;;
50803;SDS011;37205;51.434;6.756;2024-03-08T11:37:34;20.02;;;15.50;;
50803;SDS011;37205;51.434;6.756;2024-03-08T11:40:00;20.65;;;15.48;;
50803;SDS011;37205;51.434;6.756;2024-03-08T11:42:29;22.98;;;16.90;;
50803;SDS011;37205;51.434;6.756;2024-03-08T11:44:55;22.38;;;17.92;;
50803;SDS011;37205;51.434;6.756;2024-03-08T11:47:21;25.70;;;19.33;;
50803;SDS011;37205;51.434;6.756;2024-03-08T11:49:47;24.65;;;19.35;;
50803;SDS011;37205;51.434;6.756;2024-03-08T11:52:14;29.55;;;20.10;;
50803;SDS011;37205;51.434;6.756;2024-03-08T11:54:41;24.42;;;19.45;;
50803;SDS011;37205;51.434;6.756;2024-03-08T11:57:08;26.67;;;19.38;;
50803;SDS011;37205;51.434;6.756;2024-03-08T11:59:35;28.83;;;21.63;;
50803;SDS011;37205;51.434;6.756;2024-03-08T12:02:02;29.65;;;21.20;;
50803;SDS011;37205;51.434;6.756;2024-03-08T12:04:28;26.63;;;21.23;;
50803;SDS011;37205;51.434;6.756;2024-03-08T12:06:54;32.83;;;21.27;;
50803;SDS011;37205;51.434;6.756;2024-03-08T12:09:19;28.17;;;20.38;;
50803;SDS011;37205;51.434;6.756;2024-03-08T12:11:47;26.58;;;20.40;;
50803;SDS011;37205;51.434;6.756;2024-03-08T12:14:14;26.90;;;20.55;;
50803;SDS011;37205;51.434;6.756;2024-03-08T12:16:41;27.80;;;20.85;;
50803;SDS011;37205;51.434;6.756;2024-03-08T12:19:07;26.73;;;20.88;;
50803;SDS011;37205;51.434;6.756;2024-03-08T12:21:34;26.23;;;20.52;;
50803;SDS011;37205;51.434;6.756;2024-03-08T12:24:04;27.88;;;20.42;;
50803;SDS011;37205;51.434;6.756;2024-03-08T12:26:34;26.65;;;20.23;;
50803;SDS011;37205;51.434;6.756;2024-03-08T12:31:47;26.35;;;19.80;;
50803;SDS011;37205;51.434;6.756;2024-03-08T12:34:16;30.52;;;20.38;;
50803;SDS011;37205;51.434;6.756;2024-03-08T12:36:45;24.73;;;20.17;;
50803;SDS011;37205;51.434;6.756;2024-03-08T12:39:17;28.25;;;20.60;;
50803;SDS011;37205;51.434;6.756;2024-03-08T12:41:47;26.33;;;19.05;;
50803;SDS011;37205;51.434;6.756;2024-03-08T12:44:14;25.67;;;19.08;;
50803;SDS011;37205;51.434;6.756;2024-03-08T12:46:40;27.33;;;19.63;;
50803;SDS011;37205;51.434;6.756;2024-03-08T12:49:07;23.83;;;18.05;;
50803;SDS011;37205;51.434;6.756;2024-03-08T12:51:34;23.98;;;18.40;;
50803;SDS011;37205;51.434;6.756;2024-03-08T12:54:00;25.92;;;19.52;;
50803;SDS011;37205;51.434;6.756;2024-03-08T12:56:30;23.73;;;18.42;;
50803;SDS011;37205;51.434;6.756;2024-03-08T13:01:25;23.60;;;18.05;;
50803;SDS011;37205;51.434;6.756;2024-03-08T13:03:52;24.70;;;17.88;;
50803;SDS011;37205;51.434;6.756;2024-03-08T13:06:18;22.52;;;17.98;;
50803;SDS011;37205;51.434;6.756;2024-03-08T13:08:46;22.38;;;17.25;;
50803;SDS011;37205;51.434;6.756;2024-03-08T13:11:13;21.42;;;16.08;;
50803;SDS011;37205;51.434;6.756;2024-03-08T13:13:42;22.25;;;16.48;;
50803;SDS011;37205;51.434;6.756;2024-03-08T13:16:08;15.13;;;11.98;;
50803;SDS011;37205;51.434;6.756;2024-03-08T13:18:34;13.13;;;9.45;;
50803;SDS011;37205;51.434;6.756;2024-03-08T13:21:03;15.05;;;10.40;;
50803;SDS011;37205;51.434;6.756;2024-03-08T13:23:32;12.43;;;9.85;;
50803;SDS011;37205;51.434;6.756;2024-03-08T13:25:58;10.73;;;8.55;;
50803;SDS011;37205;51.434;6.756;2024-03-08T13:28:24;11.52;;;8.55;;
50803;SDS011;37205;51.434;6.756;2024-03-08T13:30:54;11.20;;;8.75;;
50803;SDS011;37205;51.434;6.756;2024-03-08T13:33:22;9.57;;;7.82;;
50803;SDS011;37205;51.434;6.756;2024-03-08T13:35:48;12.30;;;8.70;;
50803;SDS011;37205;51.434;6.756;2024-03-08T13:38:15;11.20;;;8.48;;
50803;SDS011;37205;51.434;6.756;2024-03-08T13:40:43;10.70;;;8.70;;
50803;SDS011;37205;51.434;6.756;2024-03-08T13:43:08;10.93;;;8.65;;
50803;SDS011;37205;51.434;6.756;2024-03-08T13:45:34;10.32;;;8.38;;
50803;SDS011;37205;51.434;6.756;2024-03-08T13:48:03;11.65;;;8.63;;
50803;SDS011;37205;51.434;6.756;2024-03-08T13:50:29;13.40;;;8.80;;
50803;SDS011;37205;51.434;6.756;2024-03-08T13:52:55;10.60;;;8.20;;
50803;SDS011;37205;51.434;6.756;2024-03-08T13:55:21;10.95;;;8.07;;
50803;SDS011;37205;51.434;6.756;2024-03-08T13:57:47;11.30;;;7.95;;
50803;SDS011;37205;51.434;6.756;2024-03-08T14:00:13;10.25;;;7.85;;
50803;SDS011;37205;51.434;6.756;2024-03-08T14:02:40;9.38;;;7.20;;
50803;SDS011;37205;51.434;6.756;2024-03-08T14:05:06;11.20;;;8.13;;
50803;SDS011;37205;51.434;6.756;2024-03-08T14:07:34;9.50;;;7.40;;
50803;SDS011;37205;51.434;6.756;2024-03-08T14:10:02;10.68;;;8.00;;
50803;SDS011;37205;51.434;6.756;2024-03-08T14:12:28;10.90;;;8.02;;
50803;SDS011;37205;51.434;6.756;2024-03-08T14:14:54;10.65;;;8.18;;
50803;SDS011;37205;51.434;6.756;2024-03-08T14:17:22;10.55;;;7.80;;
50803;SDS011;37205;51.434;6.756;2024-03-08T14:19:48;10.93;;;7.85;;
50803;SDS011;37205;51.434;6.756;2024-03-08T14:22:15;12.18;;;8.82;;
50803;SDS011;37205;51.434;6.756;2024-03-08T14:24:41;9.57;;;7.72;;
50803;SDS011;37205;51.434;6.756;2024-03-08T14:27:07;10.13;;;8.10;;
50803;SDS011;37205;51.434;6.756;2024-03-08T14:29:34;11.23;;;8.70;;